createdAt,value
2018-05-03T00:00:32.730Z,1005.72
2018-05-03T00:01:32.709Z,1005.72
2018-05-03T00:02:32.693Z,1005.70
2018-05-03T00:03:32.675Z,1005.72
2018-05-03T00:04:32.661Z,1005.73
2018-05-03T00:05:32.642Z,1005.72
2018-05-03T00:06:32.625Z,1005.74
2018-05-03T00:07:32.609Z,1005.71
2018-05-03T00:08:32.589Z,1005.71
2018-05-03T00:09:32.575Z,1005.66
2018-05-03T00:10:32.566Z,1005.70
2018-05-03T00:11:32.549Z,1005.70
2018-05-03T00:12:32.533Z,1005.71
2018-05-03T00:13:32.508Z,1005.70
2018-05-03T00:14:32.492Z,1005.67
2018-05-03T00:15:32.477Z,1005.69
2018-05-03T00:16:32.472Z,1005.63
2018-05-03T00:17:32.450Z,1005.68
2018-05-03T00:18:32.432Z,1005.68
2018-05-03T00:19:32.412Z,1005.66
2018-05-03T00:20:32.389Z,1005.70
2018-05-03T00:21:32.373Z,1005.65
2018-05-03T00:22:32.358Z,1005.68
2018-05-03T00:23:32.341Z,1005.67
2018-05-03T00:24:32.330Z,1005.65
2018-05-03T00:25:32.315Z,1005.63
2018-05-03T00:26:32.297Z,1005.67
2018-05-03T00:27:32.273Z,1005.63
2018-05-03T00:28:32.255Z,1005.64
2018-05-03T00:29:32.240Z,1005.65
2018-05-03T00:30:32.222Z,1005.66
2018-05-03T00:31:32.214Z,1005.62
2018-05-03T00:32:32.188Z,1005.63
2018-05-03T00:33:32.174Z,1005.65
2018-05-03T00:34:32.155Z,1005.68
2018-05-03T00:35:32.146Z,1005.68
2018-05-03T00:36:32.121Z,1005.69
2018-05-03T00:37:32.112Z,1005.65
2018-05-03T00:38:32.090Z,1005.69
2018-05-03T00:39:32.082Z,1005.70
2018-05-03T00:40:32.054Z,1005.68
2018-05-03T00:41:32.050Z,1005.70
2018-05-03T00:42:32.024Z,1005.69
2018-05-03T00:43:32.008Z,1005.72
2018-05-03T00:44:31.987Z,1005.74
2018-05-03T00:45:31.971Z,1005.76
2018-05-03T00:46:31.954Z,1005.74
2018-05-03T00:47:31.946Z,1005.78
2018-05-03T00:48:31.919Z,1005.80
2018-05-03T00:49:31.904Z,1005.83
2018-05-03T00:50:31.898Z,1005.80
2018-05-03T00:51:31.884Z,1005.86
2018-05-03T00:52:31.855Z,1005.79
2018-05-03T00:53:31.843Z,1005.79
2018-05-03T00:54:31.858Z,1005.81
2018-05-03T00:55:31.803Z,1005.81
2018-05-03T00:56:31.782Z,1005.85
2018-05-03T00:57:31.771Z,1005.84
2018-05-03T00:58:31.760Z,1005.84
2018-05-03T00:59:31.745Z,1005.84
2018-05-03T01:00:31.715Z,1005.85
2018-05-03T01:01:31.702Z,1005.81
2018-05-03T01:02:31.682Z,1005.85
2018-05-03T01:03:31.666Z,1005.83
2018-05-03T01:04:31.649Z,1005.86
2018-05-03T01:05:31.630Z,1005.87
2018-05-03T01:06:31.614Z,1005.88
2018-05-03T01:07:31.609Z,1005.95
2018-05-03T01:08:31.583Z,1005.91
2018-05-03T01:09:31.563Z,1005.91
2018-05-03T01:10:31.545Z,1005.91
2018-05-03T01:11:31.533Z,1005.91
2018-05-03T01:12:31.513Z,1005.98
2018-05-03T01:13:31.494Z,1006.00
2018-05-03T01:14:31.479Z,1006.01
2018-05-03T01:15:31.479Z,1006.01
2018-05-03T01:16:31.443Z,1006.01
2018-05-03T01:17:31.442Z,1006.00
2018-05-03T01:18:31.415Z,1005.99
2018-05-03T01:19:31.395Z,1006.06
2018-05-03T01:20:31.376Z,1006.07
2018-05-03T01:21:31.362Z,1006.08
2018-05-03T01:22:31.346Z,1006.10
2018-05-03T01:23:31.327Z,1006.10
2018-05-03T01:24:31.313Z,1006.14
2018-05-03T01:25:31.300Z,1006.16
2018-05-03T01:26:31.288Z,1006.22
2018-05-03T01:27:31.259Z,1006.23
2018-05-03T01:28:31.241Z,1006.28
2018-05-03T01:29:31.223Z,1006.23
2018-05-03T01:30:31.205Z,1006.25
2018-05-03T01:31:31.190Z,1006.23
2018-05-03T01:32:31.173Z,1006.22
2018-05-03T01:33:31.155Z,1006.23
2018-05-03T01:34:31.139Z,1006.29
2018-05-03T01:35:31.121Z,1006.33
2018-05-03T01:36:31.103Z,1006.30
2018-05-03T01:37:31.089Z,1006.31
2018-05-03T01:38:31.071Z,1006.29
2018-05-03T01:39:31.054Z,1006.25
2018-05-03T01:40:31.041Z,1006.28
2018-05-03T01:41:31.020Z,1006.30
2018-05-03T01:42:31.002Z,1006.36
2018-05-03T01:43:30.985Z,1006.33
2018-05-03T01:44:30.967Z,1006.41
2018-05-03T01:45:30.967Z,1006.44
2018-05-03T01:46:30.936Z,1006.44
2018-05-03T01:47:30.918Z,1006.47
2018-05-03T01:48:30.901Z,1006.47
2018-05-03T01:49:30.894Z,1006.45
2018-05-03T01:50:30.868Z,1006.45
2018-05-03T01:51:30.852Z,1006.49
2018-05-03T01:52:30.834Z,1006.53
2018-05-03T01:53:30.815Z,1006.48
2018-05-03T01:54:30.800Z,1006.52
2018-05-03T01:55:30.789Z,1006.54
2018-05-03T01:56:30.765Z,1006.54
2018-05-03T01:57:30.748Z,1006.54
2018-05-03T01:58:30.745Z,1006.55
2018-05-03T01:59:30.712Z,1006.56
2018-05-03T02:00:30.695Z,1006.55
2018-05-03T02:01:30.679Z,1006.58
2018-05-03T02:02:30.661Z,1006.62
2018-05-03T02:03:30.645Z,1006.60
2018-05-03T02:04:30.631Z,1006.59
2018-05-03T02:05:30.609Z,1006.56
2018-05-03T02:06:30.605Z,1006.52
2018-05-03T02:07:30.575Z,1006.52
2018-05-03T02:08:30.558Z,1006.52
2018-05-03T02:09:30.543Z,1006.53
2018-05-03T02:10:30.529Z,1006.52
2018-05-03T02:11:30.506Z,1006.56
2018-05-03T02:12:30.488Z,1006.59
2018-05-03T02:13:30.473Z,1006.56
2018-05-03T02:14:30.455Z,1006.59
2018-05-03T02:15:30.447Z,1006.60
2018-05-03T02:16:30.420Z,1006.64
2018-05-03T02:17:30.404Z,1006.62
2018-05-03T02:18:30.390Z,1006.63
2018-05-03T02:19:30.374Z,1006.66
2018-05-03T02:20:30.360Z,1006.67
2018-05-03T02:21:30.334Z,1006.72
2018-05-03T02:22:30.319Z,1006.75
2018-05-03T02:23:30.301Z,1006.81
2018-05-03T02:24:30.286Z,1006.83
2018-05-03T02:25:30.267Z,1006.88
2018-05-03T02:26:30.249Z,1006.90
2018-05-03T02:27:30.232Z,1006.94
2018-05-03T02:28:30.214Z,1006.91
2018-05-03T02:29:30.197Z,1006.97
2018-05-03T02:30:30.183Z,1006.94
2018-05-03T02:31:30.169Z,1006.97
2018-05-03T02:32:30.146Z,1006.97
2018-05-03T02:33:30.130Z,1006.99
2018-05-03T02:34:30.113Z,1007.01
2018-05-03T02:35:30.095Z,1007.04
2018-05-03T02:36:30.076Z,1007.03
2018-05-03T02:37:30.060Z,1007.04
2018-05-03T02:38:30.043Z,1007.08
2018-05-03T02:39:30.027Z,1007.05
2018-05-03T02:40:30.009Z,1007.03
2018-05-03T02:41:29.992Z,1007.04
2018-05-03T02:42:29.974Z,1007.06
2018-05-03T02:43:29.958Z,1007.07
2018-05-03T02:44:29.944Z,1007.06
2018-05-03T02:45:29.923Z,1007.03
2018-05-03T02:46:29.907Z,1007.05
2018-05-03T02:47:29.890Z,1007.08
2018-05-03T02:48:29.886Z,1007.10
2018-05-03T02:49:29.864Z,1007.10
2018-05-03T02:50:29.838Z,1007.13
2018-05-03T02:51:29.821Z,1007.18
2018-05-03T02:52:29.803Z,1007.20
2018-05-03T02:53:29.787Z,1007.20
2018-05-03T02:54:29.773Z,1007.21
2018-05-03T02:55:29.757Z,1007.21
2018-05-03T02:56:29.734Z,1007.23
2018-05-03T02:57:29.718Z,1007.26
2018-05-03T02:58:29.852Z,1007.28
2018-05-03T02:59:29.703Z,1007.29
2018-05-03T03:00:29.667Z,1007.35
2018-05-03T03:01:29.651Z,1007.37
2018-05-03T03:02:29.726Z,1007.38
2018-05-03T03:03:29.633Z,1007.38
2018-05-03T03:04:29.606Z,1007.43
2018-05-03T03:05:29.582Z,1007.42
2018-05-03T03:06:29.566Z,1007.47
2018-05-03T03:07:29.551Z,1007.50
2018-05-03T03:08:29.531Z,1007.51
2018-05-03T03:09:29.516Z,1007.47
2018-05-03T03:10:29.500Z,1007.43
2018-05-03T03:11:29.492Z,1007.46
2018-05-03T03:12:29.464Z,1007.44
2018-05-03T03:13:29.450Z,1007.49
2018-05-03T03:14:29.429Z,1007.53
2018-05-03T03:15:29.416Z,1007.55
2018-05-03T03:16:29.401Z,1007.55
2018-05-03T03:17:29.377Z,1007.57
2018-05-03T03:18:29.361Z,1007.58
2018-05-03T03:19:29.344Z,1007.66
2018-05-03T03:20:29.327Z,1007.63
2018-05-03T03:21:29.313Z,1007.65
2018-05-03T03:22:29.293Z,1007.63
2018-05-03T03:23:29.278Z,1007.60
2018-05-03T03:24:29.259Z,1007.62
2018-05-03T03:25:29.242Z,1007.59
2018-05-03T03:26:29.225Z,1007.63
2018-05-03T03:27:29.215Z,1007.65
2018-05-03T03:28:29.190Z,1007.65
2018-05-03T03:29:29.174Z,1007.66
2018-05-03T03:30:29.159Z,1007.69
2018-05-03T03:31:29.143Z,1007.67
2018-05-03T03:32:29.134Z,1007.72
2018-05-03T03:33:29.108Z,1007.67
2018-05-03T03:34:29.088Z,1007.73
2018-05-03T03:35:29.073Z,1007.72
2018-05-03T03:36:29.054Z,1007.77
2018-05-03T03:37:29.037Z,1007.80
2018-05-03T03:38:29.021Z,1007.79
2018-05-03T03:39:29.004Z,1007.78
2018-05-03T03:40:28.985Z,1007.80
2018-05-03T03:41:28.969Z,1007.79
2018-05-03T03:42:28.958Z,1007.83
2018-05-03T03:43:28.936Z,1007.83
2018-05-03T03:44:28.918Z,1007.77
2018-05-03T03:45:28.900Z,1007.77
2018-05-03T03:46:28.884Z,1007.80
2018-05-03T03:47:28.868Z,1007.76
2018-05-03T03:48:28.852Z,1007.78
2018-05-03T03:49:28.834Z,1007.80
2018-05-03T03:50:28.832Z,1007.80
2018-05-03T03:51:28.799Z,1007.78
2018-05-03T03:52:28.783Z,1007.82
2018-05-03T03:53:28.769Z,1007.81
2018-05-03T03:54:28.748Z,1007.82
2018-05-03T03:55:28.732Z,1007.83
2018-05-03T03:56:28.714Z,1007.84
2018-05-03T03:57:28.696Z,1007.86
2018-05-03T03:58:28.682Z,1007.88
2018-05-03T03:59:28.667Z,1007.89
2018-05-03T04:00:28.659Z,1007.94
2018-05-03T04:01:28.629Z,1007.88
2018-05-03T04:02:28.612Z,1007.99
2018-05-03T04:03:28.599Z,1007.94
2018-05-03T04:04:28.602Z,1007.96
2018-05-03T04:05:28.561Z,1007.97
2018-05-03T04:06:28.549Z,1007.99
2018-05-03T04:07:28.527Z,1007.98
2018-05-03T04:08:28.589Z,1007.96
2018-05-03T04:09:28.492Z,1007.97
2018-05-03T04:10:28.480Z,1008.00
2018-05-03T04:11:28.460Z,1007.99
2018-05-03T04:12:28.441Z,1008.02
2018-05-03T04:13:28.425Z,1008.04
2018-05-03T04:14:28.410Z,1008.07
2018-05-03T04:15:28.390Z,1008.07
2018-05-03T04:16:28.375Z,1008.11
2018-05-03T04:17:28.357Z,1008.14
2018-05-03T04:18:28.340Z,1008.16
2018-05-03T04:19:28.323Z,1008.19
2018-05-03T04:20:28.304Z,1008.20
2018-05-03T04:21:28.288Z,1008.19
2018-05-03T04:22:28.296Z,1008.21
2018-05-03T04:23:28.254Z,1008.21
2018-05-03T04:24:28.237Z,1008.17
2018-05-03T04:25:28.220Z,1008.17
2018-05-03T04:26:28.204Z,1008.21
2018-05-03T04:27:28.185Z,1008.19
2018-05-03T04:28:28.177Z,1008.22
2018-05-03T04:29:28.156Z,1008.28
2018-05-03T04:30:28.134Z,1008.31
2018-05-03T04:31:28.118Z,1008.30
2018-05-03T04:32:28.099Z,1008.31
2018-05-03T04:33:28.086Z,1008.33
2018-05-03T04:34:28.109Z,1008.35
2018-05-03T04:35:28.047Z,1008.39
2018-05-03T04:36:28.034Z,1008.40
2018-05-03T04:37:28.015Z,1008.46
2018-05-03T04:38:28.006Z,1008.48
2018-05-03T04:39:27.980Z,1008.52
2018-05-03T04:40:27.963Z,1008.51
2018-05-03T04:41:27.947Z,1008.57
2018-05-03T04:42:27.930Z,1008.60
2018-05-03T04:43:27.911Z,1008.62
2018-05-03T04:44:27.894Z,1008.63
2018-05-03T04:45:27.876Z,1008.61
2018-05-03T04:46:27.860Z,1008.61
2018-05-03T04:47:27.842Z,1008.62
2018-05-03T04:48:27.830Z,1008.61
2018-05-03T04:49:27.807Z,1008.61
2018-05-03T04:50:27.792Z,1008.66
2018-05-03T04:51:27.781Z,1008.67
2018-05-03T04:52:27.757Z,1008.73
2018-05-03T04:53:27.742Z,1008.76
2018-05-03T04:54:27.723Z,1008.79
2018-05-03T04:55:27.705Z,1008.79
2018-05-03T04:56:27.695Z,1008.77
2018-05-03T04:57:27.678Z,1008.76
2018-05-03T04:58:27.653Z,1008.75
2018-05-03T04:59:27.636Z,1008.78
2018-05-03T05:00:27.623Z,1008.81
2018-05-03T05:01:27.603Z,1008.85
2018-05-03T05:02:27.584Z,1008.84
2018-05-03T05:03:27.566Z,1008.89
2018-05-03T05:04:27.550Z,1008.96
2018-05-03T05:05:27.540Z,1008.97
2018-05-03T05:06:27.514Z,1009.00
2018-05-03T05:07:27.499Z,1009.04
2018-05-03T05:08:27.479Z,1009.02
2018-05-03T05:09:27.464Z,1009.08
2018-05-03T05:10:27.509Z,1009.01
2018-05-03T05:11:27.429Z,1009.00
2018-05-03T05:12:27.411Z,1009.02
2018-05-03T05:13:27.395Z,1009.02
2018-05-03T05:14:27.379Z,1009.08
2018-05-03T05:15:27.369Z,1009.13
2018-05-03T05:16:27.342Z,1009.18
2018-05-03T05:17:27.326Z,1009.25
2018-05-03T05:18:27.310Z,1009.25
2018-05-03T05:19:27.291Z,1009.27
2018-05-03T05:20:27.274Z,1009.27
2018-05-03T05:21:27.262Z,1009.26
2018-05-03T05:22:27.243Z,1009.26
2018-05-03T05:23:27.241Z,1009.29
2018-05-03T05:24:27.205Z,1009.31
2018-05-03T05:25:27.205Z,1009.35
2018-05-03T05:26:27.173Z,1009.33
2018-05-03T05:27:27.161Z,1009.33
2018-05-03T05:28:27.139Z,1009.32
2018-05-03T05:29:27.123Z,1009.34
2018-05-03T05:30:27.109Z,1009.34
2018-05-03T05:31:27.095Z,1009.36
2018-05-03T05:32:27.080Z,1009.42
2018-05-03T05:33:27.054Z,1009.54
2018-05-03T05:34:27.036Z,1009.49
2018-05-03T05:35:27.022Z,1009.53
2018-05-03T05:36:27.158Z,1009.58
2018-05-03T05:37:26.988Z,1009.55
2018-05-03T05:38:26.978Z,1009.56
2018-05-03T05:39:26.956Z,1009.57
2018-05-03T05:40:26.950Z,1009.61
2018-05-03T05:41:26.929Z,1009.62
2018-05-03T05:42:26.904Z,1009.58
2018-05-03T05:43:26.885Z,1009.61
2018-05-03T05:44:26.877Z,1009.61
2018-05-03T05:45:26.851Z,1009.66
2018-05-03T05:46:26.836Z,1009.68
2018-05-03T05:47:26.819Z,1009.75
2018-05-03T05:48:26.803Z,1009.79
2018-05-03T05:49:26.802Z,1009.80
2018-05-03T05:50:26.770Z,1009.83
2018-05-03T05:51:26.753Z,1009.90
2018-05-03T05:52:26.748Z,1009.89
2018-05-03T05:53:26.721Z,1009.93
2018-05-03T05:54:26.706Z,1010.19
2018-05-03T05:55:26.688Z,1010.11
2018-05-03T05:56:26.672Z,1010.16
2018-05-03T05:57:26.658Z,1010.12
2018-05-03T05:58:26.641Z,1010.10
2018-05-03T05:59:26.636Z,1010.10
2018-05-03T06:00:26.616Z,1010.15
2018-05-03T06:01:26.594Z,1010.18
2018-05-03T06:02:26.590Z,1010.48
2018-05-03T06:03:26.564Z,1010.31
2018-05-03T06:04:26.548Z,1010.26
2018-05-03T06:05:26.591Z,1010.20
2018-05-03T06:06:26.521Z,1010.25
2018-05-03T06:07:26.505Z,1010.23
2018-05-03T06:08:26.491Z,1010.22
2018-05-03T06:09:26.473Z,1010.22
2018-05-03T06:10:26.463Z,1010.24
2018-05-03T06:11:26.452Z,1010.30
2018-05-03T06:12:26.460Z,1010.40
2018-05-03T06:13:26.415Z,1010.38
2018-05-03T06:14:26.400Z,1010.34
2018-05-03T06:15:26.386Z,1010.32
2018-05-03T06:16:26.375Z,1010.34
2018-05-03T06:17:26.365Z,1010.39
2018-05-03T06:18:26.342Z,1010.42
2018-05-03T06:19:26.330Z,1010.78
2018-05-03T06:20:26.318Z,1010.71
2018-05-03T06:21:26.351Z,1010.50
2018-05-03T06:22:26.286Z,1010.49
2018-05-03T06:23:26.273Z,1010.54
2018-05-03T06:24:26.257Z,1010.53
2018-05-03T06:25:26.245Z,1010.53
2018-05-03T06:26:26.233Z,1010.53
2018-05-03T06:27:26.224Z,1010.55
2018-05-03T06:28:26.207Z,1010.72
2018-05-03T06:29:26.195Z,1010.59
2018-05-03T06:30:26.181Z,1010.51
2018-05-03T06:31:26.169Z,1010.55
2018-05-03T06:32:26.162Z,1010.55
2018-05-03T06:33:26.142Z,1010.69
2018-05-03T06:34:26.136Z,1010.65
2018-05-03T06:35:26.118Z,1010.67
2018-05-03T06:36:26.103Z,1010.72
2018-05-03T06:37:26.090Z,1010.69
2018-05-03T06:38:26.078Z,1011.02
2018-05-03T06:39:26.073Z,1010.87
2018-05-03T06:40:26.051Z,1010.83
2018-05-03T06:41:26.044Z,1010.84
2018-05-03T06:42:26.029Z,1010.83
2018-05-03T06:43:26.016Z,1010.74
2018-05-03T06:44:26.001Z,1010.91
2018-05-03T06:45:26.048Z,1010.86
2018-05-03T06:46:25.984Z,1010.84
2018-05-03T06:47:25.967Z,1010.90
2018-05-03T06:48:25.953Z,1010.84
2018-05-03T06:49:25.943Z,1010.83
2018-05-03T06:50:25.938Z,1010.82
2018-05-03T06:51:25.933Z,1011.01
2018-05-03T06:52:25.911Z,1010.86
2018-05-03T06:53:25.900Z,1010.87
2018-05-03T06:54:25.882Z,1010.84
2018-05-03T06:55:25.880Z,1010.93
2018-05-03T06:56:25.859Z,1010.91
2018-05-03T06:57:25.847Z,1010.89
2018-05-03T06:58:25.843Z,1010.94
2018-05-03T06:59:25.849Z,1010.88
2018-05-03T07:00:25.810Z,1010.94
2018-05-03T07:01:25.798Z,1010.96
2018-05-03T07:02:25.787Z,1010.96
2018-05-03T07:03:25.775Z,1010.94
2018-05-03T07:04:25.820Z,1010.91
2018-05-03T07:05:25.763Z,1010.89
2018-05-03T07:06:25.748Z,1010.90
2018-05-03T07:07:25.733Z,1010.92
2018-05-03T07:08:25.717Z,1010.89
2018-05-03T07:09:25.709Z,1010.91
2018-05-03T07:10:25.689Z,1010.92
2018-05-03T07:11:25.677Z,1010.97
2018-05-03T07:12:25.664Z,1010.98
2018-05-03T07:13:25.653Z,1010.97
2018-05-03T07:14:25.641Z,1010.97
2018-05-03T07:15:25.706Z,1010.97
2018-05-03T07:16:25.762Z,1010.96
2018-05-03T07:17:25.613Z,1010.98
2018-05-03T07:18:25.593Z,1010.98
2018-05-03T07:19:25.609Z,1011.00
2018-05-03T07:20:25.565Z,1011.01
2018-05-03T07:21:25.556Z,1011.06
2018-05-03T07:22:25.545Z,1011.08
2018-05-03T07:23:25.536Z,1011.20
2018-05-03T07:24:25.532Z,1011.17
2018-05-03T07:25:25.515Z,1011.15
2018-05-03T07:26:25.492Z,1011.10
2018-05-03T07:27:25.480Z,1011.10
2018-05-03T07:28:25.468Z,1011.08
2018-05-03T07:29:25.474Z,1011.22
2018-05-03T07:30:25.446Z,1011.23
2018-05-03T07:31:25.431Z,1011.23
2018-05-03T07:32:25.426Z,1011.24
2018-05-03T07:33:25.407Z,1011.23
2018-05-03T07:34:25.394Z,1011.24
2018-05-03T07:35:25.387Z,1011.24
2018-05-03T07:36:25.372Z,1011.28
2018-05-03T07:37:25.359Z,1011.24
2018-05-03T07:38:25.344Z,1011.24
2018-05-03T07:39:25.341Z,1011.27
2018-05-03T07:40:25.321Z,1011.32
2018-05-03T07:41:25.321Z,1011.29
2018-05-03T07:42:25.301Z,1011.30
2018-05-03T07:43:25.281Z,1011.32
2018-05-03T07:44:25.268Z,1011.36
2018-05-03T07:45:25.265Z,1011.34
2018-05-03T07:46:25.259Z,1011.32
2018-05-03T07:47:25.233Z,1011.36
2018-05-03T07:48:25.220Z,1011.40
2018-05-03T07:49:25.208Z,1011.39
2018-05-03T07:50:25.199Z,1011.35
2018-05-03T07:51:25.189Z,1011.35
2018-05-03T07:52:25.170Z,1011.36
2018-05-03T07:53:25.162Z,1011.38
2018-05-03T07:54:25.146Z,1011.35
2018-05-03T07:55:25.134Z,1011.40
2018-05-03T07:56:25.122Z,1011.40
2018-05-03T07:57:25.209Z,1011.41
2018-05-03T07:58:25.148Z,1011.38
2018-05-03T07:59:25.084Z,1011.39
2018-05-03T08:00:25.071Z,1011.40
2018-05-03T08:01:25.059Z,1011.42
2018-05-03T08:02:25.048Z,1011.43
2018-05-03T08:03:25.036Z,1011.45
2018-05-03T08:04:25.041Z,1011.45
2018-05-03T08:05:25.019Z,1011.38
2018-05-03T08:06:24.999Z,1011.41
2018-05-03T08:07:24.985Z,1011.47
2018-05-03T08:08:24.976Z,1011.42
2018-05-03T08:09:24.961Z,1011.45
2018-05-03T08:10:24.948Z,1011.44
2018-05-03T08:11:24.938Z,1011.48
2018-05-03T08:12:24.922Z,1011.50
2018-05-03T08:13:24.933Z,1011.55
2018-05-03T08:14:24.899Z,1011.51
2018-05-03T08:15:24.888Z,1011.56
2018-05-03T08:16:24.883Z,1011.60
2018-05-03T08:17:24.860Z,1011.56
2018-05-03T08:18:24.848Z,1011.56
2018-05-03T08:19:24.928Z,1011.64
2018-05-03T08:20:24.823Z,1011.62
2018-05-03T08:21:24.810Z,1011.61
2018-05-03T08:22:24.862Z,1011.66
2018-05-03T08:23:24.787Z,1011.61
2018-05-03T08:24:24.773Z,1011.63
2018-05-03T08:25:24.763Z,1011.63
2018-05-03T08:26:24.757Z,1011.66
2018-05-03T08:27:24.738Z,1011.65
2018-05-03T08:28:24.722Z,1011.70
2018-05-03T08:29:24.711Z,1011.65
2018-05-03T08:30:24.701Z,1011.68
2018-05-03T08:31:24.685Z,1011.73
2018-05-03T08:32:24.669Z,1011.75
2018-05-03T08:33:24.661Z,1011.77
2018-05-03T08:34:24.650Z,1011.78
2018-05-03T08:35:24.640Z,1011.81
2018-05-03T08:36:24.623Z,1011.80
2018-05-03T08:37:24.610Z,1011.76
2018-05-03T08:38:24.595Z,1011.79
2018-05-03T08:39:24.590Z,1011.82
2018-05-03T08:40:24.570Z,1011.82
2018-05-03T08:41:24.558Z,1011.80
2018-05-03T08:42:24.544Z,1011.83
2018-05-03T08:43:24.531Z,1011.86
2018-05-03T08:44:24.520Z,1011.85
2018-05-03T08:45:24.506Z,1011.84
2018-05-03T08:46:24.493Z,1011.85
2018-05-03T08:47:24.482Z,1011.81
2018-05-03T08:48:24.480Z,1011.86
2018-05-03T08:49:24.535Z,1011.88
2018-05-03T08:50:24.446Z,1011.88
2018-05-03T08:51:24.439Z,1011.91
2018-05-03T08:52:24.417Z,1011.92
2018-05-03T08:53:24.409Z,1011.90
2018-05-03T08:54:24.399Z,1011.93
2018-05-03T08:55:24.420Z,1011.94
2018-05-03T08:56:24.368Z,1011.94
2018-05-03T08:57:24.354Z,1012.01
2018-05-03T08:58:24.341Z,1012.07
2018-05-03T08:59:24.330Z,1012.09
2018-05-03T09:00:24.316Z,1012.12
2018-05-03T09:01:24.387Z,1012.08
2018-05-03T09:02:24.291Z,1012.11
2018-05-03T09:03:24.281Z,1012.10
2018-05-03T09:04:24.271Z,1012.11
2018-05-03T09:05:24.255Z,1012.32
2018-05-03T09:06:24.244Z,1012.33
2018-05-03T09:07:24.247Z,1012.17
2018-05-03T09:08:24.218Z,1012.20
2018-05-03T09:09:24.223Z,1012.20
2018-05-03T09:10:24.205Z,1012.20
2018-05-03T09:11:24.184Z,1012.17
2018-05-03T09:12:24.172Z,1012.22
2018-05-03T09:13:24.160Z,1012.22
2018-05-03T09:14:24.149Z,1012.29
2018-05-03T09:15:24.144Z,1012.27
2018-05-03T09:16:24.126Z,1012.31
2018-05-03T09:17:24.114Z,1012.29
2018-05-03T09:18:24.107Z,1012.34
2018-05-03T09:19:24.107Z,1012.33
2018-05-03T09:20:24.091Z,1012.30
2018-05-03T09:21:24.070Z,1012.28
2018-05-03T09:22:24.131Z,1012.26
2018-05-03T09:23:24.058Z,1012.30
2018-05-03T09:24:24.034Z,1012.31
2018-05-03T09:25:24.031Z,1012.25
2018-05-03T09:26:24.020Z,1012.26
2018-05-03T09:27:24.027Z,1012.31
2018-05-03T09:28:23.994Z,1012.33
2018-05-03T09:29:23.981Z,1012.46
2018-05-03T09:30:23.968Z,1012.55
2018-05-03T09:31:23.963Z,1012.70
2018-05-03T09:32:23.944Z,1012.52
2018-05-03T09:33:23.932Z,1012.49
2018-05-03T09:34:23.921Z,1012.47
2018-05-03T09:35:23.921Z,1012.50
2018-05-03T09:36:23.901Z,1012.42
2018-05-03T09:37:23.886Z,1012.47
2018-05-03T09:38:23.877Z,1012.50
2018-05-03T09:39:23.866Z,1012.51
2018-05-03T09:40:23.858Z,1012.42
2018-05-03T09:41:23.848Z,1012.37
2018-05-03T09:42:23.834Z,1012.59
2018-05-03T09:43:23.823Z,1012.52
2018-05-03T09:44:23.849Z,1012.51
2018-05-03T09:45:23.801Z,1012.66
2018-05-03T09:46:23.800Z,1012.65
2018-05-03T09:47:23.783Z,1012.68
2018-05-03T09:48:23.784Z,1012.57
2018-05-03T09:49:23.763Z,1012.60
2018-05-03T09:50:23.759Z,1012.66
2018-05-03T09:51:23.754Z,1012.71
2018-05-03T09:52:23.789Z,1012.68
2018-05-03T09:53:23.727Z,1012.76
2018-05-03T09:54:23.722Z,1012.81
2018-05-03T09:55:23.720Z,1012.89
2018-05-03T09:56:23.713Z,1012.81
2018-05-03T09:57:23.697Z,1012.88
2018-05-03T09:58:23.690Z,1012.91
2018-05-03T09:59:23.778Z,1012.97
2018-05-03T10:00:23.676Z,1012.94
2018-05-03T10:01:23.670Z,1012.89
2018-05-03T10:02:23.664Z,1012.84
2018-05-03T10:03:23.659Z,1012.88
2018-05-03T10:04:23.652Z,1012.90
2018-05-03T10:05:23.646Z,1012.83
2018-05-03T10:06:23.646Z,1012.87
2018-05-03T10:07:23.636Z,1012.86
2018-05-03T10:08:23.634Z,1012.85
2018-05-03T10:09:23.640Z,1012.82
2018-05-03T10:10:23.635Z,1012.87
2018-05-03T10:11:23.633Z,1012.88
2018-05-03T10:12:23.608Z,1012.90
2018-05-03T10:13:23.724Z,1012.89
2018-05-03T10:14:23.595Z,1012.86
2018-05-03T10:15:23.601Z,1012.84
2018-05-03T10:16:23.582Z,1012.86
2018-05-03T10:17:23.579Z,1012.83
2018-05-03T10:18:23.582Z,1012.89
2018-05-03T10:19:23.568Z,1012.90
2018-05-03T10:20:23.582Z,1012.85
2018-05-03T10:21:23.566Z,1012.76
2018-05-03T10:22:23.561Z,1012.77
2018-05-03T10:23:23.550Z,1012.79
2018-05-03T10:24:23.546Z,1012.74
2018-05-03T10:25:23.542Z,1012.82
2018-05-03T10:26:23.541Z,1012.77
2018-05-03T10:27:23.539Z,1012.81
2018-05-03T10:28:23.531Z,1012.83
2018-05-03T10:29:23.528Z,1012.87
2018-05-03T10:30:23.521Z,1012.88
2018-05-03T10:31:23.524Z,1012.91
2018-05-03T10:32:23.524Z,1012.76
2018-05-03T10:33:23.513Z,1012.85
2018-05-03T10:34:23.511Z,1012.81
2018-05-03T10:35:23.504Z,1012.63
2018-05-03T10:36:23.506Z,1012.72
2018-05-03T10:37:23.493Z,1012.75
2018-05-03T10:38:23.494Z,1012.79
2018-05-03T10:39:23.487Z,1012.86
2018-05-03T10:40:23.491Z,1012.82
2018-05-03T10:41:23.476Z,1012.84
2018-05-03T10:42:23.497Z,1012.83
2018-05-03T10:43:23.489Z,1012.83
2018-05-03T10:44:23.468Z,1012.74
2018-05-03T10:45:23.468Z,1012.79
2018-05-03T10:46:23.471Z,1012.87
2018-05-03T10:47:23.457Z,1012.88
2018-05-03T10:48:23.468Z,1013.00
2018-05-03T10:49:23.453Z,1012.99
2018-05-03T10:50:23.456Z,1012.88
2018-05-03T10:51:23.458Z,1012.94
2018-05-03T10:52:23.445Z,1012.90
2018-05-03T10:53:23.449Z,1012.93
2018-05-03T10:54:23.446Z,1012.91
2018-05-03T10:55:23.443Z,1012.96
2018-05-03T10:56:23.441Z,1012.96
2018-05-03T10:57:23.499Z,1013.02
2018-05-03T10:58:23.439Z,1013.02
2018-05-03T10:59:23.435Z,1013.02
2018-05-03T11:00:23.433Z,1013.05
2018-05-03T11:01:23.431Z,1013.24
2018-05-03T11:02:23.434Z,1013.23
2018-05-03T11:03:23.430Z,1013.02
2018-05-03T11:04:23.435Z,1013.07
2018-05-03T11:05:23.468Z,1013.10
2018-05-03T11:06:23.426Z,1013.32
2018-05-03T11:07:23.424Z,1013.29
2018-05-03T11:08:23.423Z,1013.51
2018-05-03T11:09:23.421Z,1013.31
2018-05-03T11:10:23.433Z,1013.33
2018-05-03T11:11:23.427Z,1013.50
2018-05-03T11:12:23.415Z,1013.45
2018-05-03T11:13:23.424Z,1013.65
2018-05-03T11:14:23.416Z,1013.51
2018-05-03T11:15:23.429Z,1013.33
2018-05-03T11:16:23.413Z,1013.32
2018-05-03T11:17:23.413Z,1013.30
2018-05-03T11:18:23.412Z,1013.22
2018-05-03T11:19:23.421Z,1013.70
2018-05-03T11:20:23.409Z,1013.84
2018-05-03T11:21:23.410Z,1013.81
2018-05-03T11:22:23.408Z,1013.50
2018-05-03T11:23:23.408Z,1013.76
2018-05-03T11:24:23.406Z,1013.56
2018-05-03T11:25:23.406Z,1013.38
2018-05-03T11:26:23.414Z,1013.74
2018-05-03T11:27:23.406Z,1013.50
2018-05-03T11:28:23.416Z,1014.01
2018-05-03T11:29:23.411Z,1013.46
2018-05-03T11:30:23.412Z,1013.49
2018-05-03T11:31:23.467Z,1013.37
2018-05-03T11:32:23.400Z,1013.86
2018-05-03T11:33:23.400Z,1013.65
2018-05-03T11:34:23.395Z,1013.39
2018-05-03T11:35:23.403Z,1013.35
2018-05-03T11:36:23.393Z,1013.65
2018-05-03T11:37:23.401Z,1013.87
2018-05-03T11:38:23.399Z,1013.61
2018-05-03T11:39:23.395Z,1013.66
2018-05-03T11:40:23.386Z,1013.33
2018-05-03T11:41:23.383Z,1013.27
2018-05-03T11:42:23.390Z,1013.32
2018-05-03T11:43:23.377Z,1013.49
2018-05-03T11:44:23.378Z,1013.34
2018-05-03T11:45:23.373Z,1013.20
2018-05-03T11:46:23.374Z,1013.13
2018-05-03T11:47:23.367Z,1013.10
2018-05-03T11:48:23.363Z,1013.06
2018-05-03T11:49:23.365Z,1013.03
2018-05-03T11:50:23.356Z,1013.06
2018-05-03T11:51:23.353Z,1013.08
2018-05-03T11:52:23.393Z,1013.10
2018-05-03T11:53:23.343Z,1013.11
2018-05-03T11:54:23.340Z,1013.07
2018-05-03T11:55:23.334Z,1013.11
2018-05-03T11:56:23.336Z,1013.07
2018-05-03T11:57:23.325Z,1013.04
2018-05-03T11:58:23.318Z,1013.04
2018-05-03T11:59:23.413Z,1013.03
2018-05-03T12:00:23.311Z,1013.05
2018-05-03T12:01:23.297Z,1013.02
2018-05-03T12:02:23.378Z,1013.02
2018-05-03T12:03:23.288Z,1012.99
2018-05-03T12:04:23.279Z,1013.00
2018-05-03T12:05:23.276Z,1012.97